sensor_id;sensor_type;location;lat;lon;timestamp;pressure;altitude;pressure_sealevel;temperature;humidity
30614;BME280;17381;51.690;5.270;2023-06-05T12:04:13;102100.38;;;28.10;37.50
30614;BME280;17381;51.690;5.270;2023-06-05T12:07:15;102089.78;;;27.96;37.22
30614;BME280;17381;51.690;5.270;2023-06-05T12:11:18;102104.78;;;28.11;38.69
30614;BME280;17381;51.690;5.270;2023-06-05T12:35:00;102046.97;;;29.43;34.68
30614;BME280;17381;51.690;5.270;2023-06-05T12:37:37;102088.34;;;29.66;34.85
30614;BME280;17381;51.690;5.270;2023-06-05T12:44:08;102072.88;;;29.56;35.17
30614;BME280;17381;51.690;5.270;2023-06-05T12:47:07;102075.53;;;29.68;33.77
30614;BME280;17381;51.690;5.270;2023-06-05T12:50:41;102084.25;;;29.50;34.28
30614;BME280;17381;51.690;5.270;2023-06-05T12:57:32;102056.75;;;29.55;34.52
30614;BME280;17381;51.690;5.270;2023-06-05T13:03:48;102029.25;;;29.60;34.11
30614;BME280;17381;51.690;5.270;2023-06-05T13:06:18;102015.56;;;29.61;34.72
30614;BME280;17381;51.690;5.270;2023-06-05T13:09:15;102060.28;;;30.07;34.49
30614;BME280;17381;51.690;5.270;2023-06-05T13:12:24;102050.63;;;30.14;34.32
30614;BME280;17381;51.690;5.270;2023-06-05T13:15:43;102048.22;;;30.21;33.07
30614;BME280;17381;51.690;5.270;2023-06-05T13:18:40;102041.13;;;30.30;34.03
30614;BME280;17381;51.690;5.270;2023-06-05T13:21:52;102031.28;;;30.48;32.17
30614;BME280;17381;51.690;5.270;2023-06-05T13:25:13;102034.72;;;30.50;32.87
30614;BME280;17381;51.690;5.270;2023-06-05T13:28:10;102035.31;;;30.63;32.70
30614;BME280;17381;51.690;5.270;2023-06-05T13:31:05;102014.75;;;30.71;32.39
30614;BME280;17381;51.690;5.270;2023-06-05T13:33:45;102025.91;;;30.87;32.21
30614;BME280;17381;51.690;5.270;2023-06-05T13:36:42;102019.06;;;30.83;31.05
30614;BME280;17381;51.690;5.270;2023-06-05T13:39:47;102021.03;;;30.81;31.91
30614;BME280;17381;51.690;5.270;2023-06-05T13:43:04;102013.66;;;30.83;31.53
30614;BME280;17381;51.690;5.270;2023-06-05T13:46:07;102012.75;;;30.73;31.27
30614;BME280;17381;51.690;5.270;2023-06-05T13:48:49;102025.75;;;30.59;30.87
30614;BME280;17381;51.690;5.270;2023-06-05T13:51:44;101968.16;;;30.27;31.88
30614;BME280;17381;51.690;5.270;2023-06-05T13:54:17;101979.72;;;30.48;31.45
30614;BME280;17381;51.690;5.270;2023-06-05T13:57:08;102013.59;;;30.73;30.96
30614;BME280;17381;51.690;5.270;2023-06-05T14:00:16;101996.88;;;30.58;31.41
30614;BME280;17381;51.690;5.270;2023-06-05T14:06:18;101993.88;;;30.71;32.25
30614;BME280;17381;51.690;5.270;2023-06-05T14:09:17;101999.75;;;30.96;31.70
30614;BME280;17381;51.690;5.270;2023-06-05T14:12:07;101999.19;;;30.92;30.83
30614;BME280;17381;51.690;5.270;2023-06-05T14:18:22;101995.34;;;30.85;31.14
30614;BME280;17381;51.690;5.270;2023-06-05T14:21:12;101992.78;;;30.83;31.35
30614;BME280;17381;51.690;5.270;2023-06-05T14:24:21;101991.16;;;30.81;31.22
30614;BME280;17381;51.690;5.270;2023-06-05T14:27:17;101994.75;;;30.81;31.40
30614;BME280;17381;51.690;5.270;2023-06-05T14:30:20;101998.75;;;30.87;30.91
30614;BME280;17381;51.690;5.270;2023-06-05T14:33:13;101980.88;;;30.94;30.82
30614;BME280;17381;51.690;5.270;2023-06-05T14:36:05;101983.84;;;31.11;30.27
30614;BME280;17381;51.690;5.270;2023-06-05T14:38:40;101984.88;;;31.00;30.78
30614;BME280;17381;51.690;5.270;2023-06-05T14:41:50;101974.72;;;30.92;31.48
30614;BME280;17381;51.690;5.270;2023-06-05T14:45:02;101973.75;;;30.83;31.45
30614;BME280;17381;51.690;5.270;2023-06-05T14:47:49;101974.44;;;30.95;30.57
30614;BME280;17381;51.690;5.270;2023-06-05T14:50:42;101969.59;;;30.89;31.42
30614;BME280;17381;51.690;5.270;2023-06-05T14:53:24;101962.16;;;31.01;31.87
30614;BME280;17381;51.690;5.270;2023-06-05T14:59:07;101972.81;;;31.22;31.67
30614;BME280;17381;51.690;5.270;2023-06-05T15:02:06;101968.94;;;31.34;31.58
30614;BME280;17381;51.690;5.270;2023-06-05T15:05:09;101961.06;;;31.41;32.25
30614;BME280;17381;51.690;5.270;2023-06-05T15:07:47;101969.44;;;31.57;31.59
30614;BME280;17381;51.690;5.270;2023-06-05T15:10:41;101964.34;;;31.44;30.26
30614;BME280;17381;51.690;5.270;2023-06-05T15:13:21;101946.22;;;31.16;30.77
30614;BME280;17381;51.690;5.270;2023-06-05T15:15:55;101959.28;;;31.02;31.16
30614;BME280;17381;51.690;5.270;2023-06-05T15:18:40;101958.00;;;30.97;31.82
30614;BME280;17381;51.690;5.270;2023-06-05T15:21:16;101949.25;;;31.03;32.39
30614;BME280;17381;51.690;5.270;2023-06-05T15:23:47;101953.09;;;31.20;32.05
30614;BME280;17381;51.690;5.270;2023-06-05T15:26:36;101950.94;;;31.23;32.05
30614;BME280;17381;51.690;5.270;2023-06-05T15:29:25;101953.31;;;31.36;32.19
30614;BME280;17381;51.690;5.270;2023-06-05T15:31:54;101957.06;;;31.35;32.18
30614;BME280;17381;51.690;5.270;2023-06-05T15:35:08;101953.31;;;31.36;31.72
30614;BME280;17381;51.690;5.270;2023-06-05T15:37:54;101941.69;;;31.06;31.67
30614;BME280;17381;51.690;5.270;2023-06-05T15:41:14;101953.72;;;30.94;32.03
30614;BME280;17381;51.690;5.270;2023-06-05T15:47:41;101950.16;;;30.64;32.29
30614;BME280;17381;51.690;5.270;2023-06-05T15:50:18;101958.59;;;30.42;32.59
30614;BME280;17381;51.690;5.270;2023-06-05T15:52:59;101938.44;;;30.35;32.76
30614;BME280;17381;51.690;5.270;2023-06-05T15:58:13;101953.28;;;30.40;32.85
30614;BME280;17381;51.690;5.270;2023-06-05T16:00:44;101946.16;;;30.39;33.00
30614;BME280;17381;51.690;5.270;2023-06-05T16:03:16;101911.41;;;30.04;32.91
30614;BME280;17381;51.690;5.270;2023-06-05T16:06:01;101940.94;;;30.07;33.64
30614;BME280;17381;51.690;5.270;2023-06-05T16:08:56;101950.38;;;30.03;33.68
30614;BME280;17381;51.690;5.270;2023-06-05T16:11:24;101939.38;;;29.95;33.14
30614;BME280;17381;51.690;5.270;2023-06-05T16:13:58;101952.38;;;30.01;33.79
30614;BME280;17381;51.690;5.270;2023-06-05T16:16:38;101884.31;;;29.54;33.36
30614;BME280;17381;51.690;5.270;2023-06-05T16:19:04;101912.66;;;29.50;33.79
30614;BME280;17381;51.690;5.270;2023-06-05T16:21:48;101943.09;;;29.63;34.20
30614;BME280;17381;51.690;5.270;2023-06-05T16:24:31;101936.19;;;29.49;34.08
30614;BME280;17381;51.690;5.270;2023-06-05T16:27:09;101935.63;;;29.46;33.59
30614;BME280;17381;51.690;5.270;2023-06-05T16:33:02;101925.75;;;29.14;34.27
30614;BME280;17381;51.690;5.270;2023-06-05T16:36:39;101934.47;;;28.97;34.00
30614;BME280;17381;51.690;5.270;2023-06-05T16:39:14;101935.19;;;28.78;34.95
30614;BME280;17381;51.690;5.270;2023-06-05T16:41:52;101942.75;;;28.63;34.08
30614;BME280;17381;51.690;5.270;2023-06-05T16:44:23;101943.19;;;28.58;34.62
30614;BME280;17381;51.690;5.270;2023-06-05T16:46:49;101936.69;;;28.49;34.69
30614;BME280;17381;51.690;5.270;2023-06-05T16:49:19;101929.44;;;28.39;35.62
30614;BME280;17381;51.690;5.270;2023-06-05T16:52:16;101942.22;;;28.37;34.78
30614;BME280;17381;51.690;5.270;2023-06-05T16:54:45;101938.38;;;28.18;34.84
30614;BME280;17381;51.690;5.270;2023-06-05T16:57:22;101940.75;;;28.00;34.83
30614;BME280;17381;51.690;5.270;2023-06-05T17:00:01;101928.75;;;27.71;35.45
30614;BME280;17381;51.690;5.270;2023-06-05T17:02:52;101939.03;;;27.54;35.40
30614;BME280;17381;51.690;5.270;2023-06-05T17:05:32;101936.22;;;27.33;35.56
30614;BME280;17381;51.690;5.270;2023-06-05T17:08:03;101920.84;;;27.11;35.83
30614;BME280;17381;51.690;5.270;2023-06-05T17:10:34;101939.25;;;27.06;36.10
30614;BME280;17381;51.690;5.270;2023-06-05T17:13:11;101925.69;;;26.84;36.19
30614;BME280;17381;51.690;5.270;2023-06-05T17:15:49;101943.56;;;26.73;36.36
30614;BME280;17381;51.690;5.270;2023-06-05T17:18:22;101932.91;;;26.48;36.78
30614;BME280;17381;51.690;5.270;2023-06-05T17:20:48;101924.34;;;26.30;36.73
30614;BME280;17381;51.690;5.270;2023-06-05T17:23:42;101937.16;;;26.15;37.33
30614;BME280;17381;51.690;5.270;2023-06-05T17:26:26;101934.44;;;25.91;37.63
30614;BME280;17381;51.690;5.270;2023-06-05T17:29:10;101926.13;;;25.81;37.34
30614;BME280;17381;51.690;5.270;2023-06-05T17:31:43;101937.59;;;25.72;37.78
30614;BME280;17381;51.690;5.270;2023-06-05T17:34:25;101943.09;;;25.58;38.64
30614;BME280;17381;51.690;5.270;2023-06-05T17:36:54;101889.50;;;25.16;38.67
30614;BME280;17381;51.690;5.270;2023-06-05T17:39:50;101945.25;;;25.40;38.54
30614;BME280;17381;51.690;5.270;2023-06-05T17:42:31;101949.16;;;25.23;38.59
30614;BME280;17381;51.690;5.270;2023-06-05T17:45:10;101925.19;;;24.93;39.22
30614;BME280;17381;51.690;5.270;2023-06-05T17:47:52;101936.81;;;24.93;39.03
30614;BME280;17381;51.690;5.270;2023-06-05T17:50:27;101931.31;;;24.69;39.41
30614;BME280;17381;51.690;5.270;2023-06-05T17:53:01;101942.16;;;24.68;40.08
30614;BME280;17381;51.690;5.270;2023-06-05T17:55:32;101943.19;;;24.52;39.93
30614;BME280;17381;51.690;5.270;2023-06-05T17:58:25;101949.75;;;24.34;40.47
30614;BME280;17381;51.690;5.270;2023-06-05T18:01:23;101955.41;;;24.16;40.78
30614;BME280;17381;51.690;5.270;2023-06-05T18:04:09;101943.91;;;24.00;40.88
30614;BME280;17381;51.690;5.270;2023-06-05T18:10:03;101968.09;;;24.00;41.29
30614;BME280;17381;51.690;5.270;2023-06-05T18:12:57;101968.88;;;23.88;41.46
30614;BME280;17381;51.690;5.270;2023-06-05T18:16:04;101965.81;;;23.80;41.87
30614;BME280;17381;51.690;5.270;2023-06-05T18:18:48;101963.91;;;23.67;41.84
30614;BME280;17381;51.690;5.270;2023-06-05T18:21:33;101963.50;;;23.59;41.79
30614;BME280;17381;51.690;5.270;2023-06-05T18:24:17;101954.88;;;23.40;42.10
30614;BME280;17381;51.690;5.270;2023-06-05T18:26:57;101900.13;;;22.99;42.67
30614;BME280;17381;51.690;5.270;2023-06-05T18:29:45;101967.88;;;23.17;42.72
30614;BME280;17381;51.690;5.270;2023-06-05T18:32:31;101952.19;;;23.11;42.87
30614;BME280;17381;51.690;5.270;2023-06-05T18:38:54;101964.63;;;23.12;42.81
30614;BME280;17381;51.690;5.270;2023-06-05T18:41:24;101961.81;;;22.99;42.95
30614;BME280;17381;51.690;5.270;2023-06-05T18:44:22;101962.06;;;22.95;43.02
30614;BME280;17381;51.690;5.270;2023-06-05T18:47:12;101889.91;;;22.46;43.14
30614;BME280;17381;51.690;5.270;2023-06-05T18:50:07;101971.59;;;22.84;43.19
30614;BME280;17381;51.690;5.270;2023-06-05T18:52:44;101970.41;;;22.74;43.37
30614;BME280;17381;51.690;5.270;2023-06-05T18:55:45;101969.78;;;22.55;43.82
30614;BME280;17381;51.690;5.270;2023-06-05T18:58:35;101976.81;;;22.26;44.15
30614;BME280;17381;51.690;5.270;2023-06-05T19:01:37;101969.69;;;22.09;44.44
30614;BME280;17381;51.690;5.270;2023-06-05T19:04:24;101978.69;;;22.08;44.73
30614;BME280;17381;51.690;5.270;2023-06-05T19:07:10;101973.06;;;21.96;44.96
30614;BME280;17381;51.690;5.270;2023-06-05T19:10:21;101980.34;;;21.94;45.21
30614;BME280;17381;51.690;5.270;2023-06-05T19:13:20;101977.66;;;21.94;45.32
30614;BME280;17381;51.690;5.270;2023-06-05T19:19:19;101939.50;;;21.58;45.41
30614;BME280;17381;51.690;5.270;2023-06-05T19:21:51;101977.72;;;21.77;45.49
30614;BME280;17381;51.690;5.270;2023-06-05T19:24:45;101979.94;;;21.69;45.75
30614;BME280;17381;51.690;5.270;2023-06-05T19:28:02;101959.06;;;21.42;45.86
30614;BME280;17381;51.690;5.270;2023-06-05T19:30:50;101991.31;;;21.56;46.19
30614;BME280;17381;51.690;5.270;2023-06-05T19:33:33;101991.72;;;21.49;46.21
30614;BME280;17381;51.690;5.270;2023-06-05T19:36:44;101995.41;;;21.46;46.46
30614;BME280;17381;51.690;5.270;2023-06-05T19:39:39;101989.88;;;21.32;46.46
30614;BME280;17381;51.690;5.270;2023-06-05T19:42:50;101986.28;;;21.16;46.83
30614;BME280;17381;51.690;5.270;2023-06-05T19:45:48;101978.28;;;20.98;47.13
30614;BME280;17381;51.690;5.270;2023-06-05T19:48:54;102001.56;;;20.96;47.17
30614;BME280;17381;51.690;5.270;2023-06-05T19:51:55;101985.50;;;20.79;47.41
30614;BME280;17381;51.690;5.270;2023-06-05T19:54:36;102002.56;;;20.76;47.77
30614;BME280;17381;51.690;5.270;2023-06-05T19:57:26;101984.00;;;20.56;47.92
30614;BME280;17381;51.690;5.270;2023-06-05T20:00:21;101957.66;;;20.29;48.00
30614;BME280;17381;51.690;5.270;2023-06-05T20:06:20;102013.59;;;20.32;48.62
30614;BME280;17381;51.690;5.270;2023-06-05T20:09:16;102031.69;;;20.25;49.00
30614;BME280;17381;51.690;5.270;2023-06-05T20:12:08;102014.09;;;20.21;49.08
30614;BME280;17381;51.690;5.270;2023-06-05T20:15:04;102026.63;;;20.00;49.39
30614;BME280;17381;51.690;5.270;2023-06-05T20:17:56;102028.09;;;19.89;49.66
30614;BME280;17381;51.690;5.270;2023-06-05T20:21:00;102025.81;;;19.79;50.90
30614;BME280;17381;51.690;5.270;2023-06-05T20:23:58;102030.78;;;19.68;50.85
30614;BME280;17381;51.690;5.270;2023-06-05T20:29:51;102033.97;;;19.56;50.90
30614;BME280;17381;51.690;5.270;2023-06-05T20:32:58;101963.25;;;19.06;51.22
30614;BME280;17381;51.690;5.270;2023-06-05T20:35:58;102042.38;;;19.47;51.22
30614;BME280;17381;51.690;5.270;2023-06-05T20:41:48;101991.91;;;19.22;51.20
30614;BME280;17381;51.690;5.270;2023-06-05T20:45:04;102041.16;;;19.54;51.25
30614;BME280;17381;51.690;5.270;2023-06-05T20:48:24;102043.81;;;19.54;51.27
30614;BME280;17381;51.690;5.270;2023-06-05T20:51:44;102038.91;;;19.45;51.49
30614;BME280;17381;51.690;5.270;2023-06-05T20:55:12;102028.16;;;19.26;51.71
30614;BME280;17381;51.690;5.270;2023-06-05T20:58:09;102033.09;;;19.14;51.77
30614;BME280;17381;51.690;5.270;2023-06-05T21:01:04;102038.63;;;19.10;52.09
30614;BME280;17381;51.690;5.270;2023-06-05T21:03:50;102006.75;;;18.86;51.90
30614;BME280;17381;51.690;5.270;2023-06-05T21:06:47;102039.44;;;19.12;52.06
30614;BME280;17381;51.690;5.270;2023-06-05T21:12:41;102040.91;;;19.19;52.03
30614;BME280;17381;51.690;5.270;2023-06-05T21:15:53;102039.97;;;19.20;52.09
30614;BME280;17381;51.690;5.270;2023-06-05T21:19:14;101940.63;;;18.53;52.16
30614;BME280;17381;51.690;5.270;2023-06-05T21:21:56;102027.59;;;18.97;52.19
30614;BME280;17381;51.690;5.270;2023-06-05T21:24:58;102046.34;;;18.95;52.25
30614;BME280;17381;51.690;5.270;2023-06-05T21:28:04;102056.25;;;18.92;52.43
30614;BME280;17381;51.690;5.270;2023-06-05T21:30:45;102037.13;;;18.82;52.74
30614;BME280;17381;51.690;5.270;2023-06-05T21:33:43;102052.44;;;18.77;52.72
30614;BME280;17381;51.690;5.270;2023-06-05T21:36:37;102048.38;;;18.67;52.79
30614;BME280;17381;51.690;5.270;2023-06-05T21:39:26;102053.78;;;18.64;52.69
30614;BME280;17381;51.690;5.270;2023-06-05T21:42:18;102038.75;;;18.63;52.69
30614;BME280;17381;51.690;5.270;2023-06-05T21:45:15;102039.63;;;18.63;52.87
30614;BME280;17381;51.690;5.270;2023-06-05T21:47:57;102050.34;;;18.62;53.01
30614;BME280;17381;51.690;5.270;2023-06-05T21:54:04;102055.16;;;18.52;53.07
30614;BME280;17381;51.690;5.270;2023-06-05T21:56:48;102058.38;;;18.38;53.45
30614;BME280;17381;51.690;5.270;2023-06-05T22:00:04;102048.13;;;18.27;53.46
30614;BME280;17381;51.690;5.270;2023-06-05T22:03:12;102046.88;;;18.14;53.72
30614;BME280;17381;51.690;5.270;2023-06-05T22:06:00;102057.28;;;18.20;54.15
30614;BME280;17381;51.690;5.270;2023-06-05T22:08:36;102054.03;;;18.12;54.10
30614;BME280;17381;51.690;5.270;2023-06-05T22:17:35;102058.03;;;18.00;54.06
30614;BME280;17381;51.690;5.270;2023-06-05T22:20:33;102061.31;;;18.07;53.92
30614;BME280;17381;51.690;5.270;2023-06-05T22:23:28;102042.38;;;17.93;54.28
30614;BME280;17381;51.690;5.270;2023-06-05T22:26:39;102050.63;;;17.85;54.24
30614;BME280;17381;51.690;5.270;2023-06-05T22:29:36;102055.25;;;17.80;54.28
30614;BME280;17381;51.690;5.270;2023-06-05T22:35:34;102067.09;;;17.70;54.67
30614;BME280;17381;51.690;5.270;2023-06-05T22:38:14;102047.13;;;17.58;54.58
30614;BME280;17381;51.690;5.270;2023-06-05T22:40:57;102071.50;;;17.71;54.55
30614;BME280;17381;51.690;5.270;2023-06-05T22:43:40;102073.72;;;17.58;54.71
30614;BME280;17381;51.690;5.270;2023-06-05T22:46:42;102035.47;;;17.37;54.80
30614;BME280;17381;51.690;5.270;2023-06-05T22:49:42;102076.22;;;17.62;54.78
30614;BME280;17381;51.690;5.270;2023-06-05T22:52:31;102071.00;;;17.59;54.71
30614;BME280;17381;51.690;5.270;2023-06-05T22:55:21;102080.09;;;17.54;54.85
30614;BME280;17381;51.690;5.270;2023-06-05T22:58:23;102075.91;;;17.47;55.11
30614;BME280;17381;51.690;5.270;2023-06-05T23:01:19;102069.41;;;17.29;55.29
30614;BME280;17381;51.690;5.270;2023-06-05T23:04:10;102077.28;;;17.32;55.20
30614;BME280;17381;51.690;5.270;2023-06-05T23:06:47;102019.22;;;16.94;55.11
30614;BME280;17381;51.690;5.270;2023-06-05T23:09:30;102078.09;;;17.34;55.06
30614;BME280;17381;51.690;5.270;2023-06-05T23:12:31;102066.97;;;17.22;55.14
30614;BME280;17381;51.690;5.270;2023-06-05T23:15:37;102084.66;;;17.23;55.35
30614;BME280;17381;51.690;5.270;2023-06-05T23:18:44;102091.72;;;17.25;55.32
30614;BME280;17381;51.690;5.270;2023-06-05T23:21:34;102081.28;;;17.18;55.22
30614;BME280;17381;51.690;5.270;2023-06-05T23:24:33;102089.97;;;17.23;55.28
30614;BME280;17381;51.690;5.270;2023-06-05T23:27:21;102091.72;;;17.25;55.20
30614;BME280;17381;51.690;5.270;2023-06-05T23:30:13;102093.94;;;17.10;55.42
30614;BME280;17381;51.690;5.270;2023-06-05T23:33:04;102077.94;;;16.85;55.70
30614;BME280;17381;51.690;5.270;2023-06-05T23:36:32;102095.63;;;16.86;55.90
30614;BME280;17381;51.690;5.270;2023-06-05T23:39:27;102100.13;;;16.84;55.92
30614;BME280;17381;51.690;5.270;2023-06-05T23:42:19;102069.38;;;16.75;55.85
30614;BME280;17381;51.690;5.270;2023-06-05T23:45:16;102047.97;;;16.52;55.96
30614;BME280;17381;51.690;5.270;2023-06-05T23:54:22;102087.66;;;16.56;56.26
30614;BME280;17381;51.690;5.270;2023-06-05T23:57:14;102086.69;;;16.59;56.41
